Latest Weather Observations for Wangaratta

IDV60801

Issued at 3:12 am EDT Thursday 15 November 2018 (issued every 10 minutes, with the page automatically refreshed every 10 minutes)

About weather observations | Map of weather stations | Latest weather observations for VIC | Other Formats
Station Details ID: 082138 Name: WANGARATTA AERO Lat: -36.42 Lon: 146.31 Height: 152.6 m
Data from the previous 72 hours. | See also: Recent months at Wangaratta
Date/Time
EDT
Temp
°C
App
Temp
°C
Dew
Point
°C
Rel
Hum
%
Delta-T
°C
Wind Press
QNH
hPa
Press
MSL
hPa
Rain since
9am
mm
Dir  Spd
km/h
Gust
km/h
Spd
kts
Gust
kts
15/03:00am 13.1 11.2 10.5 84 1.4 WSW 11 13 6 7 1015.7 1015.4 0.0
15/02:30am 14.8 11.3 10.8 77 2.1 SW 20 24 11 13 1015.9 1015.6 0.0
15/02:00am 15.2 10.6 11.0 76 2.2 SW 26 32 14 17 1016.0 1015.7 0.0
15/01:30am 15.5 11.8 11.5 77 2.2 SW 22 28 12 15 1016.0 1015.7 0.0
15/01:00am 15.5 12.9 11.9 79 2.0 WSW 17 26 9 14 1016.0 1015.7 0.0
15/12:30am 16.5 13.1 12.5 77 2.2 WSW 22 30 12 16 1015.9 1015.6 0.0
15/12:00am 16.0 14.4 12.9 82 1.7 WSW 13 17 7 9 1015.4 1015.1 0.0
 
Date/Time
EDT
Temp
°C
App
Temp
°C
Dew
Point
°C
Rel
Hum
%
Delta-T
°C
Wind Press
QNH
hPa
Press
MSL
hPa
Rain since
9am
mm
Dir  Spd
km/h
Gust
km/h
Spd
kts
Gust
kts
14/11:30pm 17.4 14.7 13.5 78 2.2 SW 20 28 11 15 1015.4 1015.1 0.0
14/11:00pm 17.2 15.9 14.8 86 1.4 WSW 15 19 8 10 1015.1 1014.8 0.0
14/10:30pm 18.4 17.7 15.5 83 1.7 SW 13 17 7 9 1014.9 1014.6 0.0
14/10:00pm 20.4 20.5 15.4 73 3.0 NW 9 15 5 8 1014.4 1014.1 0.0
14/09:30pm 20.7 22.0 16.1 75 2.8 WNW 4 9 2 5 1014.1 1013.8 0.0
14/09:00pm 20.5 20.5 15.3 72 3.1 WNW 9 17 5 9 1013.6 1013.3 0.0
14/08:30pm 21.3 21.3 15.2 68 3.6 NW 9 13 5 7 1013.4 1013.0 0.0
14/08:00pm 22.4 21.5 14.8 62 4.5 NNW 13 19 7 10 1013.0 1012.6 0.0
14/07:30pm 23.2 21.5 14.7 58 5.1 NNW 17 22 9 12 1012.6 1012.2 0.0
14/07:00pm 24.4 21.7 14.5 54 5.9 NNW 22 32 12 17 1012.4 1012.0 0.0
14/06:30pm 25.0 22.6 14.5 52 6.3 NNE 20 28 11 15 1011.9 1011.5 0.0
14/06:00pm 25.4 23.8 13.9 49 6.8 N 15 20 8 11 1011.9 1011.5 0.0
14/05:30pm 25.5 25.2 14.3 50 6.7 NNE 9 15 5 8 1012.1 1011.7 0.0
14/05:00pm 25.3 24.4 13.8 49 6.8 NNE 11 19 6 10 1012.3 1011.9 0.0
14/04:30pm 25.2 25.1 14.0 49 6.7 NNW 7 15 4 8 1012.5 1012.1 0.0
14/04:00pm 26.3 25.9 14.1 47 7.3 NNW 9 15 5 8 1012.7 1012.3 0.0
14/03:30pm 25.1 24.1 14.6 52 6.3 N 13 19 7 10 1012.8 1012.4 0.0
14/03:00pm 24.6 21.9 12.9 48 6.8 NW 19 24 10 13 1013.4 1013.0 0.0
14/02:30pm 24.0 24.2 14.7 56 5.6 WNW 7 13 4 7 1013.7 1013.4 0.0
14/02:00pm 23.4 22.9 14.9 59 5.1 N 11 19 6 10 1014.0 1013.7 0.0
14/01:30pm 23.7 22.4 14.9 57 5.3 WNW 15 22 8 12 1014.3 1014.0 0.0
14/01:00pm 22.6 23.0 15.2 63 4.4 NNW 7 17 4 9 1014.5 1014.2 0.0
14/12:30pm 22.1 21.4 15.5 66 4.0 N 13 20 7 11 1014.7 1014.4 0.0
14/12:00pm 21.6 20.5 15.4 68 3.7 NNW 15 20 8 11 1015.0 1014.7 0.0
14/11:30am 20.5 19.8 16.3 77 2.5 N 15 20 8 11 1015.3 1015.0 0.0
14/11:12am 20.3 19.9 16.1 77 2.5 N 13 19 7 10 1015.3 1015.0 0.0
14/11:00am 20.1 20.1 16.3 79 2.3 N 11 17 6 9 1015.3 1015.0 0.0
14/10:31am 20.0 20.8 16.4 80 2.2 N 7 11 4 6 1015.3 1015.0 0.0
14/10:30am 19.9 20.7 16.3 80 2.2 N 7 11 4 6 1015.3 1015.0 0.0
14/10:00am 19.1 19.6 16.5 85 1.6 N 9 13 5 7 1015.3 1015.0 0.0
14/09:53am 18.7 19.0 16.1 85 1.6 NNE 9 13 5 7 1015.2 1014.9 0.0
14/09:30am 18.5 19.9 16.5 88 1.2 N 4 7 2 4 1015.2 1014.9 0.0
14/09:12am 18.6 21.0 16.9 90 1.0 CALM 0 0 0 0 1015.0 1014.7 0.0
14/09:00am 18.3 20.7 17.0 92 0.8 CALM 0 0 0 0 1015.0 1014.7 3.0
14/08:36am 18.0 20.6 17.4 96 0.4 CALM 0 0 0 0 1014.9 1014.6 3.0
14/08:30am 17.8 20.3 17.2 96 0.4 CALM 0 0 0 0 1014.9 1014.6 3.0
14/08:00am 17.4 18.7 17.2 99 0.1 SW 6 7 3 4 1014.6 1014.3 3.0
14/07:30am 17.1 19.5 17.1 100 0.0 CALM 0 0 0 0 1014.2 1013.9 3.0
14/07:00am 16.8 19.1 16.8 100 0.0 CALM 0 0 0 0 1014.1 1013.8 3.0
14/06:40am 16.8 19.1 16.8 100 0.0 CALM 0 0 0 0 1013.9 1013.6 3.0
14/06:30am 16.7 17.8 16.7 100 0.0 WSW 6 7 3 4 1014.0 1013.7 3.0
14/06:19am 16.7 17.8 16.7 100 0.0 W 6 9 3 5 1013.9 1013.6 3.0
14/06:17am 16.6 17.7 16.6 100 0.0 WNW 6 9 3 5 1013.9 1013.6 3.0
14/06:00am 16.7 18.6 16.7 100 0.0 ENE 2 6 1 3 1013.5 1013.2 3.0
14/05:44am 16.7 17.6 16.7 100 0.0 ESE 7 9 4 5 1013.4 1013.0 3.0
14/05:30am 16.7 17.8 16.7 100 0.0 SE 6 7 3 4 1013.3 1012.9 3.0
14/05:00am 16.9 18.9 16.9 100 0.0 E 2 9 1 5 1013.4 1013.0 3.0
14/04:30am 17.0 19.4 17.0 100 0.0 CALM 0 0 0 0 1013.5 1013.2 2.6
14/04:02am 17.2 19.7 17.2 100 0.0 CALM 0 0 0 0 1013.7 1013.4 1.8
14/04:00am 17.2 19.7 17.2 100 0.0 CALM 0 0 0 0 1013.7 1013.4 1.8
14/03:30am 17.2 18.5 17.0 99 0.1 N 6 6 3 3 1013.7 1013.4 1.0
14/03:29am 17.2 18.5 17.0 99 0.1 N 6 7 3 4 1013.7 1013.4 1.0
14/03:17am 17.2 18.5 17.0 99 0.1 N 6 7 3 4 1013.8 1013.5 0.6
14/03:00am 17.4 18.4 16.9 97 0.3 NNE 7 9 4 5 1013.8 1013.5 0.0
14/02:54am 17.4 18.0 16.9 97 0.3 NNE 9 11 5 6 1013.9 1013.6 0.0
14/02:42am 17.5 17.8 16.9 96 0.4 NNE 11 13 6 7 1014.0 1013.7 0.0
14/02:30am 17.5 17.7 16.7 95 0.5 N 11 15 6 8 1014.1 1013.8 0.0
14/02:00am 17.7 17.7 16.2 91 0.9 N 11 15 6 8 1014.5 1014.2 0.0
14/01:30am 18.1 18.0 15.9 87 1.3 N 11 15 6 8 1014.9 1014.6 0.0
14/01:00am 18.2 17.7 15.8 86 1.4 N 13 17 7 9 1015.2 1014.9 0.0
14/12:30am 18.4 17.8 15.6 84 1.7 NNE 13 17 7 9 1015.4 1015.1 0.0
14/12:00am 18.6 17.6 15.5 82 1.8 N 15 20 8 11 1015.7 1015.4 0.0
 
Date/Time
EDT
Temp
°C
App
Temp
°C
Dew
Point
°C
Rel
Hum
%
Delta-T
°C
Wind Press
QNH
hPa
Press
MSL
hPa
Rain since
9am
mm
Dir  Spd
km/h
Gust
km/h
Spd
kts
Gust
kts
13/11:30pm 18.8 17.3 15.3 80 2.1 NNE 17 22 9 12 1015.6 1015.3 0.0
13/11:00pm 18.9 17.4 15.2 79 2.2 NE 17 24 9 13 1015.3 1015.0 0.0
13/10:30pm 19.1 18.2 14.8 76 2.5 NNE 13 19 7 10 1015.7 1015.4 0.0
13/10:00pm 19.0 19.8 14.9 77 2.4 NNE 4 9 2 5 1015.9 1015.6 0.0
13/09:30pm 19.0 18.9 14.9 77 2.4 NE 9 13 5 7 1015.6 1015.3 0.0
13/09:00pm 19.2 17.9 14.9 76 2.5 NE 15 22 8 12 1014.9 1014.6 0.0
13/08:30pm 19.5 17.8 14.7 74 2.8 NNE 17 22 9 12 1015.0 1014.7 0.0
13/08:00pm 19.9 17.7 14.5 71 3.2 NNE 19 30 10 16 1014.7 1014.4 0.0
13/07:30pm 20.3 17.1 14.2 68 3.6 NNE 24 30 13 16 1014.2 1013.9 0.0
13/07:00pm 20.7 16.8 14.4 67 3.7 NNE 28 39 15 21 1013.8 1013.5 0.0
13/06:30pm 21.4 18.4 13.8 62 4.4 N 22 30 12 16 1013.4 1013.0 0.0
13/06:00pm 21.4 19.3 13.6 61 4.5 NNE 17 22 9 12 1013.0 1012.6 0.0
13/05:30pm 22.1 19.4 12.9 56 5.3 NNE 19 32 10 17 1012.9 1012.5 0.0
13/05:00pm 22.7 17.8 12.6 53 5.8 NNE 30 43 16 23 1012.7 1012.3 0.0
13/04:30pm 23.3 17.3 12.0 49 6.4 NNE 35 54 19 29 1012.7 1012.3 0.0
13/04:22pm 23.6 17.5 11.6 47 6.8 NNE 35 54 19 29 1012.5 1012.1 0.0
13/04:00pm 24.3 20.2 11.6 45 7.2 NNE 24 33 13 18 1012.5 1012.1 0.0
13/03:30pm 23.1 20.7 14.4 58 5.2 NE 20 28 11 15 1012.6 1012.2 0.0
13/03:00pm 22.0 19.3 14.6 63 4.4 ENE 22 28 12 15 1013.0 1012.6 0.0
13/02:30pm 22.7 20.8 14.3 59 5.0 E 17 24 9 13 1013.7 1013.4 0.0
13/02:00pm 23.2 20.6 11.9 49 6.4 ENE 17 24 9 13 1014.1 1013.8 0.0
13/01:30pm 23.2 21.5 12.5 51 6.1 E 13 19 7 10 1014.1 1013.8 0.0
13/01:00pm 23.5 21.5 12.8 51 6.2 ENE 15 20 8 11 1014.3 1014.0 0.0
13/12:30pm 23.7 22.2 12.0 48 6.7 ESE 11 15 6 8 1014.7 1014.4 0.0
13/12:00pm 23.4 21.5 10.5 44 7.2 E 11 19 6 10 1015.1 1014.8 0.0
13/11:30am 23.5 21.7 10.9 45 7.1 NNE 11 17 6 9 1015.5 1015.2 0.0
13/11:00am 23.5 21.8 9.9 42 7.5 ENE 9 13 5 7 1015.0 1014.7 0.0
13/10:30am 23.3 20.8 9.7 42 7.4 NE 13 17 7 9 1014.9 1014.6 0.0
13/10:00am 22.8 19.6 8.5 40 7.6 N 15 20 8 11 1015.5 1015.2 0.0
13/09:30am 21.8 19.8 10.0 47 6.4 NNW 11 15 6 8 1015.3 1015.0 0.0
13/09:00am 21.5 17.0 8.7 44 6.8 N 22 30 12 16 1014.8 1014.5 0.0
13/08:30am 20.2 18.6 8.8 48 6.0 N 7 11 4 6 1014.6 1014.3 0.0
13/08:00am 18.9 16.8 8.3 50 5.5 ESE 9 13 5 7 1014.2 1013.9 0.0
13/07:30am 18.3 16.3 8.8 54 5.0 S 9 15 5 8 1014.2 1013.9 0.0
13/07:00am 16.4 14.3 9.6 64 3.6 S 11 15 6 8 1014.3 1014.0 0.0
13/06:30am 15.4 14.5 9.1 66 3.3 SSE 4 9 2 5 1013.6 1013.3 0.0
13/06:00am 14.2 12.3 9.0 71 2.7 SSW 9 15 5 8 1013.4 1013.0 0.0
13/05:30am 13.8 11.9 9.0 73 2.4 SSW 9 13 5 7 1013.0 1012.6 0.0
13/05:00am 13.3 11.5 9.4 77 2.0 SSW 9 13 5 7 1013.1 1012.7 0.0
13/04:30am 14.0 12.4 8.6 70 2.7 SSW 7 7 4 4 1012.9 1012.5 0.0
13/04:00am 13.2 11.6 8.9 75 2.2 SSW 7 9 4 5 1012.9 1012.5 0.0
13/03:30am 13.0 11.2 8.1 72 2.4 SSW 7 9 4 5 1012.9 1012.5 0.0
13/03:00am 14.7 12.5 7.7 63 3.5 SSW 9 9 5 5 1013.1 1012.7 0.0
13/02:30am 14.4 12.3 8.1 66 3.2 SSW 9 9 5 5 1013.3 1012.9 0.0
13/02:00am 15.9 14.2 8.4 61 3.8 S 7 9 4 5 1013.7 1013.4 0.0
13/01:30am 15.9 14.1 9.3 65 3.4 SSW 9 11 5 6 1014.2 1013.9 0.0
13/01:00am 15.0 13.1 9.1 68 3.0 SW 9 11 5 6 1014.5 1014.2 0.0
13/12:30am 17.0 15.4 8.9 59 4.2 SSW 7 9 4 5 1014.7 1014.4 0.0
13/12:00am 17.5 15.6 9.2 58 4.4 SSW 9 11 5 6 1015.0 1014.7 0.0
 
Date/Time
EDT
Temp
°C
App
Temp
°C
Dew
Point
°C
Rel
Hum
%
Delta-T
°C
Wind Press
QNH
hPa
Press
MSL
hPa
Rain since
9am
mm
Dir  Spd
km/h
Gust
km/h
Spd
kts
Gust
kts
12/11:30pm 17.2 15.3 9.1 59 4.2 SSW 9 9 5 5 1015.1 1014.8 0.0
12/11:00pm 18.1 16.5 8.9 55 4.8 SSW 7 9 4 5 1015.3 1015.0 0.0
12/10:30pm 18.8 17.1 8.5 51 5.4 SSW 7 9 4 5 1015.3 1015.0 0.0
12/10:00pm 18.0 16.1 7.7 51 5.3 SW 7 9 4 5 1015.3 1015.0 0.0
12/09:30pm 19.4 17.3 6.8 44 6.4 S 7 7 4 4 1015.3 1015.0 0.0
12/09:00pm 23.0 20.3 5.4 32 8.9 SE 9 11 5 6 1015.3 1015.0 0.0
12/08:30pm 24.2 21.4 5.1 29 9.7 SE 9 13 5 7 1015.3 1015.0 0.0
12/08:00pm 25.6 22.1 3.6 24 10.9 ESE 11 15 6 8 1015.2 1014.9 0.0
12/07:30pm 26.4 22.4 3.0 22 11.6 ESE 13 19 7 10 1015.2 1014.9 0.0
12/07:00pm 27.6 23.6 2.6 20 12.4 E 13 20 7 11 1015.1 1014.8 0.0
12/06:30pm 27.8 23.0 2.8 20 12.4 ESE 17 20 9 11 1015.1 1014.8 0.0
12/06:00pm 28.6 24.2 0.3 16 13.5 SE 13 17 7 9 1015.1 1014.8 0.0
12/05:30pm 29.4 24.7 -1.9 13 14.5 ESE 13 20 7 11 1015.2 1014.9 0.0
12/05:00pm 29.2 25.3 -4.3 11 14.8 E 7 13 4 7 1015.6 1015.3 0.0
12/04:30pm 29.6 25.0 -3.9 11 15.0 N 11 17 6 9 1015.6 1015.3 0.0
12/04:00pm 29.6 24.6 -3.9 11 15.0 N 13 20 7 11 1015.8 1015.5 0.0
12/03:30pm 29.3 24.3 -4.2 11 14.9 NW 13 20 7 11 1015.9 1015.6 0.0
12/03:00pm 29.3 25.3 -5.4 10 15.1 W 7 15 4 8 1016.5 1016.2 0.0
12/02:30pm 29.8 26.1 -2.6 12 14.9 NNE 7 20 4 11 1017.0 1016.7 0.0
12/02:00pm 29.0 24.6 -2.2 13 14.3 ENE 11 20 6 11 1017.3 1017.0 0.0
12/01:30pm 29.0 25.7 -0.2 15 13.9 NW 7 20 4 11 1017.6 1017.3 0.0
12/01:00pm 28.5 25.4 1.1 17 13.3 E 7 15 4 8 1017.8 1017.5 0.0
12/12:30pm 27.6 22.4 0.4 17 12.9 NNE 17 22 9 12 1018.3 1018.0 0.0
12/12:00pm 27.4 23.0 2.5 20 12.3 NNE 15 22 8 12 1019.1 1018.7 0.0
12/11:30am 26.1 22.7 4.0 24 11.1 N 11 20 6 11 1019.6 1019.3 0.0
12/11:00am 25.2 22.4 6.9 31 9.6 NNE 11 17 6 9 1019.8 1019.5 0.0
12/10:30am 24.1 22.0 6.8 33 9.0 NNE 7 15 4 8 1020.0 1019.7 0.0
12/10:00am 22.5 20.9 7.9 39 7.7 W 6 9 3 5 1020.2 1019.9 0.0
12/09:30am 20.4 18.7 7.7 44 6.6 ESE 6 9 3 5 1020.3 1020.0 0.0
12/09:00am 18.6 17.2 8.8 53 5.1 E 6 7 3 4 1020.5 1020.2 0.0
12/08:30am 16.5 15.1 8.7 60 4.0 SE 6 7 3 4 1020.4 1020.1 0.0
12/08:00am 15.4 15.1 8.6 64 3.5 CALM 0 0 0 0 1020.4 1020.1 0.0
12/07:30am 11.5 11.3 8.9 84 1.3 CALM 0 0 0 0 1020.2 1019.9 0.0
12/07:00am 9.5 8.4 8.3 92 0.6 WSW 4 7 2 4 1020.0 1019.7 0.0
12/06:30am 7.6 5.6 6.4 92 0.6 WSW 6 7 3 4 1019.6 1019.3 0.0
12/06:00am 7.3 6.0 5.8 90 0.7 S 2 7 1 4 1019.4 1019.1 0.0
12/05:30am 7.8 7.0 6.3 90 0.7 CALM 0 0 0 0 1019.2 1018.9 0.0
12/05:00am 8.2 6.3 6.7 90 0.7 S 6 7 3 4 1018.9 1018.5 0.0
12/04:30am 8.1 6.0 5.7 85 1.1 SSE 6 7 3 4 1018.8 1018.4 0.0
12/04:00am 9.2 7.3 6.8 85 1.1 S 6 7 3 4 1018.7 1018.3 0.0
12/03:30am 9.3 7.4 6.9 85 1.1 WSW 6 7 3 4 1018.7 1018.3 0.0

Other Formats:

Comma delimited format used in spreadsheet applications
http://www.bom.gov.au/fwo/IDV60801/IDV60801.94889.axf

JavaScript Object Notation format (JSON) in row-major order
http://www.bom.gov.au/fwo/IDV60801/IDV60801.94889.json